createdAt,value
2023-02-17T00:00:57.808Z,2.49
2023-02-17T00:03:26.050Z,2.50
2023-02-17T00:05:55.400Z,2.54
2023-02-17T00:08:23.584Z,2.63
2023-02-17T00:10:58.678Z,2.61
2023-02-17T00:13:26.667Z,2.62
2023-02-17T00:15:55.053Z,2.62
2023-02-17T00:18:23.553Z,2.57
2023-02-17T00:20:51.644Z,2.55
2023-02-17T00:23:20.850Z,2.52
2023-02-17T00:25:48.778Z,2.40
2023-02-17T00:28:16.660Z,2.36
2023-02-17T00:30:44.524Z,2.33
2023-02-17T00:33:12.365Z,2.37
2023-02-17T00:35:42.609Z,2.29
2023-02-17T00:38:10.462Z,2.25
2023-02-17T00:40:41.838Z,2.17
2023-02-17T00:43:09.706Z,2.13
2023-02-17T00:45:37.572Z,2.22
2023-02-17T00:48:05.413Z,2.23
2023-02-17T00:50:33.216Z,2.14
2023-02-17T00:53:01.040Z,2.12
2023-02-17T00:55:28.981Z,2.18
2023-02-17T00:57:58.498Z,2.19
2023-02-17T01:00:26.563Z,2.09
2023-02-17T01:02:54.507Z,2.18
2023-02-17T01:05:23.472Z,2.28
2023-02-17T01:07:51.416Z,2.31
2023-02-17T01:10:19.696Z,2.09
2023-02-17T01:12:48.531Z,1.94
2023-02-17T01:15:17.908Z,1.75
2023-02-17T01:17:45.738Z,1.82
2023-02-17T01:20:13.885Z,1.90
2023-02-17T01:22:42.086Z,2.01
2023-02-17T01:25:10.173Z,1.85
2023-02-17T01:27:38.086Z,1.89
2023-02-17T01:30:07.257Z,1.64
2023-02-17T01:32:37.978Z,1.64
2023-02-17T01:35:06.438Z,1.55
2023-02-17T01:37:36.478Z,1.41
2023-02-17T01:40:04.868Z,1.22
2023-02-17T01:42:32.779Z,1.19
2023-02-17T01:45:46.370Z,1.07
2023-02-17T01:48:19.456Z,1.16
2023-02-17T01:50:53.181Z,1.32
2023-02-17T01:53:25.743Z,1.39
2023-02-17T01:55:55.522Z,1.52
2023-02-17T01:58:25.795Z,1.39
2023-02-17T02:00:56.751Z,1.38
2023-02-17T02:03:27.339Z,1.54
2023-02-17T02:05:56.507Z,1.71
2023-02-17T02:08:24.563Z,1.76
2023-02-17T02:10:54.710Z,1.83
2023-02-17T02:13:22.957Z,1.91
2023-02-17T02:15:58.614Z,1.88
2023-02-17T02:18:40.815Z,1.72
2023-02-17T02:21:48.253Z,1.90
2023-02-17T02:24:38.843Z,2.04
2023-02-17T02:27:29.569Z,2.03
2023-02-17T02:30:36.886Z,1.95
2023-02-17T02:33:11.185Z,1.85
2023-02-17T02:35:47.345Z,1.74
2023-02-17T02:38:21.027Z,1.66
2023-02-17T02:40:55.085Z,1.65
2023-02-17T02:43:24.723Z,1.50
2023-02-17T02:45:52.705Z,1.53
2023-02-17T02:48:22.406Z,1.62
2023-02-17T02:51:02.619Z,1.74
2023-02-17T02:53:58.045Z,1.84
2023-02-17T02:56:41.983Z,1.87
2023-02-17T02:59:23.679Z,1.98
2023-02-17T03:01:58.001Z,2.04
2023-02-17T03:04:36.543Z,2.06
2023-02-17T03:07:12.205Z,2.01
2023-02-17T03:09:42.305Z,1.98
2023-02-17T03:12:13.806Z,2.00
2023-02-17T03:14:44.342Z,2.06
2023-02-17T03:17:12.729Z,2.00
2023-02-17T03:19:42.401Z,2.07
2023-02-17T03:22:18.034Z,2.03
2023-02-17T03:24:48.754Z,2.02
2023-02-17T03:27:16.715Z,2.02
2023-02-17T03:29:44.721Z,2.07
2023-02-17T03:32:12.875Z,2.14
2023-02-17T03:34:42.151Z,1.98
2023-02-17T03:37:09.975Z,1.85
2023-02-17T03:39:38.023Z,1.94
2023-02-17T03:42:05.999Z,1.96
2023-02-17T03:44:34.039Z,1.97
2023-02-17T03:47:01.953Z,2.03
2023-02-17T03:49:30.325Z,2.09
2023-02-17T03:51:59.649Z,2.16
2023-02-17T03:54:28.209Z,2.15
2023-02-17T03:56:56.121Z,2.16
2023-02-17T03:59:24.412Z,2.20
2023-02-17T04:01:52.301Z,2.18
2023-02-17T04:04:20.248Z,2.20
2023-02-17T04:06:48.166Z,2.02
2023-02-17T04:09:17.406Z,1.86
2023-02-17T04:11:45.628Z,1.78
2023-02-17T04:14:13.623Z,1.81
2023-02-17T04:16:41.779Z,1.85
2023-02-17T04:19:09.706Z,1.90
2023-02-17T04:21:37.535Z,2.02
2023-02-17T04:24:05.826Z,1.93
2023-02-17T04:26:35.106Z,2.04
2023-02-17T04:29:05.659Z,2.06
2023-02-17T04:31:33.610Z,2.04
2023-02-17T04:34:01.698Z,1.93
2023-02-17T04:36:29.861Z,1.91
2023-02-17T04:38:57.735Z,1.81
2023-02-17T04:41:25.659Z,1.78
2023-02-17T04:43:54.917Z,1.80
2023-02-17T04:46:22.799Z,1.68
2023-02-17T04:48:50.633Z,1.69
2023-02-17T04:51:18.466Z,1.77
2023-02-17T04:53:46.299Z,1.86
2023-02-17T04:56:14.504Z,1.99
2023-02-17T04:58:42.508Z,2.09
2023-02-17T05:01:11.919Z,2.17
2023-02-17T05:03:39.891Z,2.22
2023-02-17T05:06:08.530Z,2.25
2023-02-17T05:08:36.448Z,2.28
2023-02-17T05:11:04.461Z,2.34
2023-02-17T05:13:33.158Z,2.35
2023-02-17T05:16:01.126Z,2.44
2023-02-17T05:18:30.440Z,2.43
2023-02-17T05:20:58.560Z,2.44
2023-02-17T05:23:26.546Z,2.47
2023-02-17T05:25:54.482Z,2.44
2023-02-17T05:28:22.415Z,2.49
2023-02-17T05:30:51.080Z,2.44
2023-02-17T05:33:19.010Z,2.40
2023-02-17T05:35:48.220Z,2.41
2023-02-17T05:38:16.150Z,2.46
2023-02-17T05:40:44.077Z,2.49
2023-02-17T05:43:12.017Z,2.47
2023-02-17T05:45:39.901Z,2.47
2023-02-17T05:48:07.877Z,2.47
2023-02-17T05:50:35.711Z,2.46
2023-02-17T05:53:05.290Z,2.44
2023-02-17T05:55:33.182Z,2.49
2023-02-17T05:58:01.134Z,2.50
2023-02-17T06:00:29.054Z,2.47
2023-02-17T06:02:57.194Z,2.53
2023-02-17T06:05:25.134Z,2.59
2023-02-17T06:07:52.993Z,2.63
2023-02-17T06:10:22.698Z,2.59
2023-02-17T06:12:50.618Z,2.66
2023-02-17T06:15:18.780Z,2.65
2023-02-17T06:17:46.637Z,2.66
2023-02-17T06:20:15.011Z,2.70
2023-02-17T06:22:43.258Z,2.68
2023-02-17T06:25:11.303Z,2.66
2023-02-17T06:27:42.099Z,2.61
2023-02-17T06:30:10.886Z,2.62
2023-02-17T06:32:38.799Z,2.65
2023-02-17T06:35:07.238Z,2.68
2023-02-17T06:37:35.087Z,2.66
2023-02-17T06:40:03.038Z,2.76
2023-02-17T06:42:30.951Z,2.76
2023-02-17T06:45:00.871Z,2.71
2023-02-17T06:47:28.876Z,2.69
2023-02-17T06:49:56.718Z,2.68
2023-02-17T06:52:24.680Z,2.64
2023-02-17T06:54:52.720Z,2.61
2023-02-17T06:57:20.679Z,2.43
2023-02-17T06:59:48.557Z,2.34
2023-02-17T07:02:17.943Z,2.34
2023-02-17T07:04:45.894Z,2.26
2023-02-17T07:07:13.826Z,2.19
2023-02-17T07:09:41.993Z,2.22
2023-02-17T07:12:10.153Z,2.20
2023-02-17T07:14:38.093Z,2.25
2023-02-17T07:17:06.170Z,2.37
2023-02-17T07:19:35.402Z,2.47
2023-02-17T07:22:03.777Z,2.55
2023-02-17T07:24:31.730Z,2.59
2023-02-17T07:27:00.860Z,2.63
2023-02-17T07:29:29.089Z,2.68
2023-02-17T07:31:57.054Z,2.69
2023-02-17T07:34:25.233Z,2.72
2023-02-17T07:36:54.443Z,2.75
2023-02-17T07:39:22.362Z,2.92
2023-02-17T07:41:50.220Z,2.93
2023-02-17T07:44:19.648Z,2.97
2023-02-17T07:46:47.623Z,3.06
2023-02-17T07:49:15.618Z,3.12
2023-02-17T07:51:43.559Z,3.17
2023-02-17T07:54:18.933Z,3.18
2023-02-17T07:56:46.853Z,3.19
2023-02-17T07:59:15.617Z,3.27
2023-02-17T08:01:43.844Z,3.38
2023-02-17T08:04:11.891Z,3.43
2023-02-17T08:06:40.702Z,3.56
2023-02-17T08:09:25.966Z,3.65
2023-02-17T08:12:12.646Z,3.69
2023-02-17T08:14:40.645Z,3.72
2023-02-17T08:17:09.052Z,3.78
2023-02-17T08:19:47.556Z,3.87
2023-02-17T08:22:17.368Z,3.93
2023-02-17T08:24:45.480Z,4.08
2023-02-17T08:27:15.851Z,4.16
2023-02-17T08:29:44.442Z,4.20
2023-02-17T08:32:12.810Z,4.30
2023-02-17T08:34:40.827Z,4.37
2023-02-17T08:37:09.036Z,4.44
2023-02-17T08:39:37.942Z,4.42
2023-02-17T08:42:06.811Z,4.43
2023-02-17T08:44:37.645Z,4.61
2023-02-17T08:47:06.752Z,4.73
2023-02-17T08:49:34.904Z,4.77
2023-02-17T08:52:03.071Z,4.85
2023-02-17T08:54:31.016Z,5.02
2023-02-17T08:56:59.593Z,5.15
2023-02-17T08:59:27.474Z,5.16
2023-02-17T09:01:56.745Z,5.11
2023-02-17T09:04:24.833Z,5.05
2023-02-17T09:06:55.972Z,5.13
2023-02-17T09:09:26.791Z,5.09
2023-02-17T09:11:55.747Z,5.10
2023-02-17T09:14:25.057Z,5.02
2023-02-17T09:16:53.657Z,4.99
2023-02-17T09:19:23.305Z,5.00
2023-02-17T09:21:51.381Z,5.03
2023-02-17T09:24:19.732Z,4.85
2023-02-17T09:26:47.563Z,4.79
2023-02-17T09:29:15.563Z,4.83
2023-02-17T09:31:44.021Z,4.90
2023-02-17T09:34:11.980Z,4.98
2023-02-17T09:36:43.186Z,4.86
2023-02-17T09:39:13.891Z,4.97
2023-02-17T09:41:45.236Z,5.01
2023-02-17T09:44:21.741Z,5.02
2023-02-17T09:47:02.268Z,5.11
2023-02-17T09:49:37.309Z,5.26
2023-02-17T09:52:13.736Z,5.32
2023-02-17T09:54:50.622Z,5.46
2023-02-17T09:57:22.820Z,5.51
2023-02-17T09:59:55.131Z,5.49
2023-02-17T10:02:28.617Z,5.40
2023-02-17T10:04:58.960Z,5.34
2023-02-17T10:07:33.182Z,5.29
2023-02-17T10:10:08.355Z,5.46
2023-02-17T10:12:41.252Z,5.56
2023-02-17T10:15:17.852Z,5.69
2023-02-17T10:17:51.759Z,5.73
2023-02-17T10:20:24.547Z,5.93
2023-02-17T10:23:00.894Z,6.00
2023-02-17T10:25:45.634Z,6.01
2023-02-17T10:28:22.898Z,5.96
2023-02-17T10:31:00.994Z,5.91
2023-02-17T10:33:35.804Z,5.91
2023-02-17T10:36:13.114Z,5.95
2023-02-17T10:38:51.238Z,5.97
2023-02-17T10:41:23.809Z,5.89
2023-02-17T10:43:52.423Z,5.89
2023-02-17T10:46:29.182Z,5.95
2023-02-17T10:49:01.570Z,5.95
2023-02-17T10:51:31.921Z,6.00
2023-02-17T10:54:04.796Z,6.01
2023-02-17T10:56:36.876Z,6.04
2023-02-17T10:59:09.925Z,5.95
2023-02-17T11:01:38.211Z,5.94
2023-02-17T11:04:08.714Z,5.99
2023-02-17T11:06:42.344Z,5.99
2023-02-17T11:09:21.299Z,5.98
2023-02-17T11:11:58.482Z,5.98
2023-02-17T11:14:28.910Z,6.08
2023-02-17T11:17:00.247Z,6.15
2023-02-17T11:19:30.559Z,6.25
2023-02-17T11:22:00.046Z,6.10
2023-02-17T11:24:31.238Z,6.16
2023-02-17T11:27:01.328Z,5.98
2023-02-17T11:29:30.454Z,5.94
2023-02-17T11:32:00.279Z,5.95
2023-02-17T11:34:30.473Z,5.92
2023-02-17T11:37:00.667Z,5.69
2023-02-17T11:39:30.257Z,5.91
2023-02-17T11:41:58.544Z,5.93
2023-02-17T11:44:28.009Z,5.90
2023-02-17T11:47:07.026Z,5.87
2023-02-17T11:49:58.478Z,5.83
2023-02-17T11:52:38.361Z,5.84
2023-02-17T11:55:19.092Z,5.80
2023-02-17T11:58:05.422Z,5.86
2023-02-17T12:00:43.481Z,5.84
2023-02-17T12:03:36.949Z,5.82
2023-02-17T12:06:13.435Z,5.90
2023-02-17T12:08:56.313Z,5.87
2023-02-17T12:11:37.463Z,5.89
2023-02-17T12:14:19.865Z,5.87
2023-02-17T12:16:56.520Z,5.86
2023-02-17T12:19:41.273Z,5.81
2023-02-17T12:22:18.278Z,5.84
2023-02-17T12:24:57.293Z,5.87
2023-02-17T12:27:39.387Z,5.88
2023-02-17T12:30:25.018Z,5.92
2023-02-17T12:33:18.146Z,5.89
2023-02-17T12:35:52.836Z,5.88
2023-02-17T12:38:26.866Z,5.94
2023-02-17T12:40:59.483Z,6.00
2023-02-17T12:43:35.356Z,6.01
2023-02-17T12:46:08.977Z,6.10
2023-02-17T12:48:41.773Z,6.17
2023-02-17T12:51:16.402Z,6.17
2023-02-17T12:53:50.050Z,6.17
2023-02-17T12:56:41.712Z,6.11
2023-02-17T12:59:17.134Z,6.07
2023-02-17T13:01:54.116Z,6.07
2023-02-17T13:04:26.218Z,5.99
2023-02-17T13:07:01.760Z,6.03
2023-02-17T13:09:34.264Z,6.04
2023-02-17T13:12:17.300Z,6.01
2023-02-17T13:14:49.282Z,6.02
2023-02-17T13:17:25.991Z,5.88
2023-02-17T13:20:25.011Z,5.83
2023-02-17T13:23:05.255Z,5.93
2023-02-17T13:25:37.667Z,6.07
2023-02-17T13:28:34.266Z,6.15
2023-02-17T13:31:16.178Z,6.17
2023-02-17T13:33:47.460Z,6.13
2023-02-17T13:36:22.381Z,6.15
2023-02-17T13:38:59.817Z,6.16
2023-02-17T13:41:28.772Z,6.11
2023-02-17T13:43:56.840Z,6.16
2023-02-17T13:46:27.729Z,6.16
2023-02-17T13:49:04.393Z,6.14
2023-02-17T13:51:33.918Z,6.17
2023-02-17T13:54:10.050Z,6.17
2023-02-17T13:56:38.126Z,6.15
2023-02-17T13:59:11.093Z,6.13
2023-02-17T14:01:43.252Z,6.11
2023-02-17T14:04:23.213Z,6.08
2023-02-17T14:06:52.681Z,6.07
2023-02-17T14:09:26.211Z,6.02
2023-02-17T14:11:55.430Z,6.01
2023-02-17T14:14:25.819Z,6.01
2023-02-17T14:17:01.648Z,6.04
2023-02-17T14:19:30.551Z,6.06
2023-02-17T14:22:01.337Z,6.08
2023-02-17T14:24:32.010Z,6.07
2023-02-17T14:27:03.202Z,6.08
2023-02-17T14:29:41.864Z,6.10
2023-02-17T14:32:29.256Z,6.11
2023-02-17T14:35:08.370Z,6.16
2023-02-17T14:37:36.999Z,6.19
2023-02-17T14:40:07.897Z,6.23
2023-02-17T14:42:35.825Z,6.20
2023-02-17T14:45:03.778Z,6.17
2023-02-17T14:47:33.112Z,6.16
2023-02-17T14:50:00.919Z,6.15
2023-02-17T14:52:28.984Z,6.14
2023-02-17T14:54:56.871Z,6.11
2023-02-17T14:57:28.701Z,6.09
2023-02-17T14:59:57.774Z,6.08
2023-02-17T15:02:25.970Z,6.08
2023-02-17T15:04:55.330Z,6.05
2023-02-17T15:07:24.013Z,5.98
2023-02-17T15:09:51.977Z,6.00
2023-02-17T15:12:22.005Z,5.98
2023-02-17T15:14:49.969Z,5.94
2023-02-17T15:17:18.017Z,5.84
2023-02-17T15:19:45.927Z,5.88
2023-02-17T15:22:15.636Z,5.88
2023-02-17T15:24:43.570Z,5.78
2023-02-17T15:27:14.960Z,5.76
2023-02-17T15:29:42.787Z,5.82
2023-02-17T15:32:18.806Z,5.80
2023-02-17T15:34:47.081Z,5.62
2023-02-17T15:37:16.372Z,5.73
2023-02-17T15:39:44.247Z,5.73
2023-02-17T15:42:15.075Z,5.68
2023-02-17T15:44:46.816Z,5.69
2023-02-17T15:47:18.251Z,5.68
2023-02-17T15:49:46.396Z,5.65
2023-02-17T15:52:16.191Z,5.60
2023-02-17T15:54:44.687Z,5.64
2023-02-17T15:57:22.289Z,5.59
2023-02-17T15:59:50.595Z,5.49
2023-02-17T16:02:21.418Z,5.42
2023-02-17T16:04:49.935Z,5.39
2023-02-17T16:07:19.460Z,5.31
2023-02-17T16:09:47.342Z,5.21
2023-02-17T16:12:18.868Z,5.31
2023-02-17T16:14:47.262Z,5.26
2023-02-17T16:17:17.609Z,5.34
2023-02-17T16:19:45.610Z,5.32
2023-02-17T16:22:14.196Z,5.28
2023-02-17T16:24:43.705Z,5.26
2023-02-17T16:27:16.168Z,5.27
2023-02-17T16:29:44.560Z,5.21
2023-02-17T16:32:13.327Z,5.31
2023-02-17T16:34:41.900Z,5.33
2023-02-17T16:37:15.874Z,5.37
2023-02-17T16:39:45.962Z,5.44
2023-02-17T16:42:15.504Z,5.45
2023-02-17T16:44:44.257Z,5.47
2023-02-17T16:47:20.539Z,5.43
2023-02-17T16:49:50.258Z,5.39
2023-02-17T16:52:24.861Z,5.29
2023-02-17T16:54:54.573Z,5.41
2023-02-17T16:57:23.127Z,5.45
2023-02-17T16:59:51.201Z,5.44
2023-02-17T17:02:21.532Z,5.44
2023-02-17T17:04:49.602Z,5.44
2023-02-17T17:07:18.057Z,5.43
2023-02-17T17:10:06.985Z,5.43
2023-02-17T17:12:35.547Z,5.46
2023-02-17T17:15:03.895Z,5.46
2023-02-17T17:17:37.926Z,5.41
2023-02-17T17:20:06.730Z,5.38
2023-02-17T17:22:34.712Z,5.36
2023-02-17T17:25:02.721Z,5.27
2023-02-17T17:27:30.638Z,5.28
2023-02-17T17:29:59.960Z,5.29
2023-02-17T17:32:29.043Z,5.30
2023-02-17T17:34:57.034Z,5.32
2023-02-17T17:37:24.918Z,5.33
2023-02-17T17:39:52.785Z,5.30
2023-02-17T17:42:20.662Z,5.18
2023-02-17T17:44:48.534Z,5.23
2023-02-17T17:47:29.893Z,5.23
2023-02-17T17:49:58.763Z,5.21
2023-02-17T17:52:26.925Z,5.19
2023-02-17T17:54:54.842Z,5.19
2023-02-17T17:57:23.239Z,5.17
2023-02-17T17:59:51.235Z,5.16
2023-02-17T18:02:20.573Z,5.14
2023-02-17T18:04:48.708Z,5.15
2023-02-17T18:07:17.066Z,5.17
2023-02-17T18:09:45.165Z,5.19
2023-02-17T18:12:17.123Z,5.23
2023-02-17T18:14:45.849Z,5.29
2023-02-17T18:17:15.373Z,5.36
2023-02-17T18:19:46.269Z,5.39
2023-02-17T18:22:14.259Z,5.44
2023-02-17T18:24:42.223Z,5.46
2023-02-17T18:27:10.085Z,5.47
2023-02-17T18:29:38.329Z,5.49
2023-02-17T18:32:06.454Z,5.48
2023-02-17T18:34:34.439Z,5.48
2023-02-17T18:37:03.704Z,5.46
2023-02-17T18:39:31.600Z,5.44
2023-02-17T18:41:59.566Z,5.42
2023-02-17T18:44:27.613Z,5.40
2023-02-17T18:46:55.508Z,5.33
2023-02-17T18:49:23.380Z,5.39
2023-02-17T18:51:51.825Z,5.35
2023-02-17T18:54:21.132Z,5.31
2023-02-17T18:56:48.978Z,5.36
2023-02-17T18:59:16.991Z,5.35
2023-02-17T19:01:45.060Z,5.35
2023-02-17T19:04:13.034Z,5.36
2023-02-17T19:06:41.178Z,5.25
2023-02-17T19:09:09.526Z,5.35
2023-02-17T19:11:38.794Z,5.29
2023-02-17T19:14:06.687Z,5.25
2023-02-17T19:16:35.114Z,5.25
2023-02-17T19:19:03.140Z,5.25
2023-02-17T19:21:31.172Z,5.26
2023-02-17T19:23:58.987Z,5.27
2023-02-17T19:26:26.877Z,5.28
2023-02-17T19:28:56.104Z,5.29
2023-02-17T19:31:24.644Z,5.33
2023-02-17T19:33:52.526Z,5.35
2023-02-17T19:36:22.182Z,5.37
2023-02-17T19:38:51.241Z,5.37
2023-02-17T19:41:20.691Z,5.39
2023-02-17T19:43:48.781Z,5.31
2023-02-17T19:46:21.093Z,5.30
2023-02-17T19:48:49.164Z,5.20
2023-02-17T19:51:17.050Z,5.19
2023-02-17T19:53:45.020Z,5.15
2023-02-17T19:56:15.229Z,5.21
2023-02-17T19:58:44.150Z,5.20
2023-02-17T20:01:13.593Z,5.31
2023-02-17T20:03:43.025Z,5.32
2023-02-17T20:06:13.012Z,5.35
2023-02-17T20:08:40.964Z,5.40
2023-02-17T20:11:10.590Z,5.40
2023-02-17T20:13:45.659Z,5.44
2023-02-17T20:16:15.932Z,5.48
2023-02-17T20:18:48.257Z,5.51
2023-02-17T20:21:17.925Z,5.53
2023-02-17T20:23:46.030Z,5.56
2023-02-17T20:26:16.894Z,5.60
2023-02-17T20:28:44.818Z,5.58
2023-02-17T20:31:13.530Z,5.55
2023-02-17T20:33:41.858Z,5.52
2023-02-17T20:36:11.853Z,5.43
2023-02-17T20:38:40.051Z,5.38
2023-02-17T20:41:09.782Z,5.40
2023-02-17T20:43:38.685Z,5.43
2023-02-17T20:46:08.065Z,5.46
2023-02-17T20:48:36.058Z,5.50
2023-02-17T20:51:05.661Z,5.50
2023-02-17T20:53:34.844Z,5.49
2023-02-17T20:56:02.953Z,5.53
2023-02-17T20:58:30.868Z,5.54
2023-02-17T21:00:58.821Z,5.56
2023-02-17T21:03:26.754Z,5.57
2023-02-17T21:05:54.691Z,5.57
2023-02-17T21:08:22.583Z,5.61
2023-02-17T21:10:51.855Z,5.63
2023-02-17T21:13:19.799Z,5.38
2023-02-17T21:15:48.047Z,5.66
2023-02-17T21:18:16.483Z,5.51
2023-02-17T21:20:44.347Z,5.66
2023-02-17T21:23:12.918Z,5.55
2023-02-17T21:25:40.785Z,5.71
2023-02-17T21:28:10.036Z,5.69
2023-02-17T21:30:37.904Z,5.71
2023-02-17T21:33:06.203Z,5.72
2023-02-17T21:35:34.019Z,5.72
2023-02-17T21:38:01.866Z,5.70
2023-02-17T21:40:29.850Z,5.68
2023-02-17T21:43:15.223Z,5.67
2023-02-17T21:45:45.591Z,5.50
2023-02-17T21:48:13.803Z,5.66
2023-02-17T21:50:41.601Z,5.64
2023-02-17T21:53:09.455Z,5.61
2023-02-17T21:55:37.356Z,5.60
2023-02-17T21:58:05.314Z,5.57
2023-02-17T22:00:33.191Z,5.42
2023-02-17T22:03:02.374Z,5.47
2023-02-17T22:05:31.525Z,5.44
2023-02-17T22:07:59.360Z,5.42
2023-02-17T22:10:27.199Z,5.43
2023-02-17T22:12:55.319Z,5.45
2023-02-17T22:15:23.118Z,5.46
2023-02-17T22:17:50.971Z,5.51
2023-02-17T22:20:20.302Z,5.55
2023-02-17T22:22:48.136Z,5.62
2023-02-17T22:25:16.147Z,5.65
2023-02-17T22:27:44.084Z,5.67
2023-02-17T22:30:12.911Z,5.79
2023-02-17T22:32:42.942Z,5.83
2023-02-17T22:35:11.376Z,5.82
2023-02-17T22:37:40.628Z,5.89
2023-02-17T22:40:10.514Z,5.94
2023-02-17T22:42:38.406Z,5.92
2023-02-17T22:45:07.013Z,5.93
2023-02-17T22:47:34.964Z,5.94
2023-02-17T22:50:02.979Z,5.94
2023-02-17T22:52:31.316Z,5.96
2023-02-17T22:55:00.609Z,5.98
2023-02-17T22:57:28.410Z,6.00
2023-02-17T22:59:56.247Z,6.05
2023-02-17T23:02:24.109Z,6.09
2023-02-17T23:04:51.965Z,6.13
2023-02-17T23:07:19.874Z,6.17
2023-02-17T23:09:47.747Z,6.23
2023-02-17T23:12:16.938Z,6.26
2023-02-17T23:14:46.166Z,6.30
2023-02-17T23:17:15.316Z,6.31
2023-02-17T23:19:43.308Z,6.36
2023-02-17T23:22:15.797Z,6.39
2023-02-17T23:24:43.792Z,6.39
2023-02-17T23:27:11.760Z,6.43
2023-02-17T23:29:42.282Z,6.47
2023-02-17T23:32:10.462Z,6.35
2023-02-17T23:34:39.292Z,6.52
2023-02-17T23:37:07.103Z,6.67
2023-02-17T23:39:38.028Z,6.75
2023-02-17T23:42:06.158Z,7.04
2023-02-17T23:44:34.012Z,7.25
2023-02-17T23:47:03.789Z,7.33
2023-02-17T23:49:31.764Z,7.36
2023-02-17T23:51:59.642Z,7.34
2023-02-17T23:54:27.621Z,7.35
2023-02-17T23:56:55.487Z,7.46
2023-02-17T23:59:23.353Z,7.57
